sensor_id;sensor_type;location;lat;lon;timestamp;pressure;altitude;pressure_sealevel;temperature;humidity
48926;BME280;39838;59.938;30.642;2023-04-01T00:01:07;99615.34;;;-0.61;83.64
48926;BME280;39838;59.938;30.642;2023-04-01T00:03:34;99619.69;;;-0.58;83.47
48926;BME280;39838;59.938;30.642;2023-04-01T00:06:03;99624.81;;;-0.57;83.35
48926;BME280;39838;59.938;30.642;2023-04-01T00:08:30;99625.66;;;-0.58;83.43
48926;BME280;39838;59.938;30.642;2023-04-01T00:10:57;99624.84;;;-0.55;83.38
48926;BME280;39838;59.938;30.642;2023-04-01T00:13:26;99613.91;;;-0.52;83.60
48926;BME280;39838;59.938;30.642;2023-04-01T00:15:55;99619.88;;;-0.52;83.45
48926;BME280;39838;59.938;30.642;2023-04-01T00:18:23;99613.78;;;-0.56;83.33
48926;BME280;39838;59.938;30.642;2023-04-01T00:20:52;99623.31;;;-0.50;83.25
48926;BME280;39838;59.938;30.642;2023-04-01T00:23:19;99620.69;;;-0.53;83.56
48926;BME280;39838;59.938;30.642;2023-04-01T00:25:47;99619.94;;;-0.49;83.42
48926;BME280;39838;59.938;30.642;2023-04-01T00:28:15;99622.47;;;-0.50;83.45
48926;BME280;39838;59.938;30.642;2023-04-01T00:30:42;99624.19;;;-0.49;83.60
48926;BME280;39838;59.938;30.642;2023-04-01T00:33:11;99625.72;;;-0.55;83.89
48926;BME280;39838;59.938;30.642;2023-04-01T00:35:39;99624.09;;;-0.52;83.36
48926;BME280;39838;59.938;30.642;2023-04-01T00:38:07;99630.06;;;-0.52;83.43
48926;BME280;39838;59.938;30.642;2023-04-01T00:40:38;99620.69;;;-0.53;83.46
48926;BME280;39838;59.938;30.642;2023-04-01T00:43:10;99618.00;;;-0.58;83.57
48926;BME280;39838;59.938;30.642;2023-04-01T00:45:40;99624.09;;;-0.52;83.79
48926;BME280;39838;59.938;30.642;2023-04-01T00:48:13;99583.41;;;-0.76;83.29
48926;BME280;39838;59.938;30.642;2023-04-01T00:50:44;99632.41;;;-0.60;83.39
48926;BME280;39838;59.938;30.642;2023-04-01T00:53:13;99620.50;;;-0.59;83.30
48926;BME280;39838;59.938;30.642;2023-04-01T00:55:44;99618.81;;;-0.59;83.61
48926;BME280;39838;59.938;30.642;2023-04-01T00:58:15;99621.38;;;-0.59;83.48
48926;BME280;39838;59.938;30.642;2023-04-01T01:00:45;99621.41;;;-0.57;83.70
48926;BME280;39838;59.938;30.642;2023-04-01T01:03:14;99613.69;;;-0.60;83.43
48926;BME280;39838;59.938;30.642;2023-04-01T01:06:07;99621.22;;;-0.63;83.88
48926;BME280;39838;59.938;30.642;2023-04-01T01:08:46;99610.06;;;-0.67;83.73
48926;BME280;39838;59.938;30.642;2023-04-01T01:11:22;99613.59;;;-0.62;83.69
48926;BME280;39838;59.938;30.642;2023-04-01T01:13:59;99611.88;;;-0.63;83.60
48926;BME280;39838;59.938;30.642;2023-04-01T01:16:30;99604.09;;;-0.67;84.00
48926;BME280;39838;59.938;30.642;2023-04-01T01:19:08;99607.53;;;-0.67;83.85
48926;BME280;39838;59.938;30.642;2023-04-01T01:21:54;99608.16;;;-0.74;84.30
48926;BME280;39838;59.938;30.642;2023-04-01T01:24:51;99614.00;;;-0.76;83.91
48926;BME280;39838;59.938;30.642;2023-04-01T01:27:21;99611.41;;;-0.78;83.93
48926;BME280;39838;59.938;30.642;2023-04-01T01:30:17;99583.72;;;-0.94;84.04
48926;BME280;39838;59.938;30.642;2023-04-01T01:35:46;99619.88;;;-0.79;83.93
48926;BME280;39838;59.938;30.642;2023-04-01T01:38:18;99606.13;;;-0.84;83.97
48926;BME280;39838;59.938;30.642;2023-04-01T01:40:48;99613.78;;;-0.84;84.28
48926;BME280;39838;59.938;30.642;2023-04-01T01:43:21;99559.19;;;-1.16;84.26
48926;BME280;39838;59.938;30.642;2023-04-01T01:45:52;99601.69;;;-0.90;84.30
48926;BME280;39838;59.938;30.642;2023-04-01T01:48:20;99612.91;;;-0.85;84.18
48926;BME280;39838;59.938;30.642;2023-04-01T01:50:50;99609.38;;;-0.88;84.31
48926;BME280;39838;59.938;30.642;2023-04-01T01:53:17;99617.13;;;-0.85;84.35
48926;BME280;39838;59.938;30.642;2023-04-01T01:55:46;99562.09;;;-1.05;83.98
48926;BME280;39838;59.938;30.642;2023-04-01T01:58:17;99617.13;;;-0.85;84.20
48926;BME280;39838;59.938;30.642;2023-04-01T02:00:48;99621.47;;;-0.83;84.25
48926;BME280;39838;59.938;30.642;2023-04-01T02:03:16;99612.94;;;-0.83;84.34
48926;BME280;39838;59.938;30.642;2023-04-01T02:05:44;99603.53;;;-0.86;84.37
48926;BME280;39838;59.938;30.642;2023-04-01T02:08:15;99589.59;;;-0.95;84.38
48926;BME280;39838;59.938;30.642;2023-04-01T02:10:46;99581.69;;;-1.04;84.33
48926;BME280;39838;59.938;30.642;2023-04-01T02:13:17;99599.00;;;-0.94;84.66
48926;BME280;39838;59.938;30.642;2023-04-01T02:15:48;99611.81;;;-0.93;84.51
48926;BME280;39838;59.938;30.642;2023-04-01T02:18:18;99612.47;;;-0.98;84.63
48926;BME280;39838;59.938;30.642;2023-04-01T02:20:46;99614.03;;;-1.02;84.78
48926;BME280;39838;59.938;30.642;2023-04-01T02:23:15;99609.03;;;-1.00;84.78
48926;BME280;39838;59.938;30.642;2023-04-01T02:25:43;99619.09;;;-1.03;84.90
48926;BME280;39838;59.938;30.642;2023-04-01T02:28:13;99609.63;;;-1.07;84.64
48926;BME280;39838;59.938;30.642;2023-04-01T02:30:45;99608.94;;;-1.02;84.71
48926;BME280;39838;59.938;30.642;2023-04-01T02:33:15;99613.25;;;-1.01;84.87
48926;BME280;39838;59.938;30.642;2023-04-01T02:35:43;99610.59;;;-1.04;84.83
48926;BME280;39838;59.938;30.642;2023-04-01T02:38:10;99603.81;;;-1.03;84.57
48926;BME280;39838;59.938;30.642;2023-04-01T02:40:43;99612.38;;;-1.01;84.78
48926;BME280;39838;59.938;30.642;2023-04-01T02:43:12;99602.97;;;-1.02;84.36
48926;BME280;39838;59.938;30.642;2023-04-01T02:45:39;99595.41;;;-1.01;84.57
48926;BME280;39838;59.938;30.642;2023-04-01T02:48:06;99609.84;;;-1.01;84.80
48926;BME280;39838;59.938;30.642;2023-04-01T02:50:33;99613.88;;;-1.08;84.50
48926;BME280;39838;59.938;30.642;2023-04-01T02:53:00;99614.03;;;-1.02;84.89
48926;BME280;39838;59.938;30.642;2023-04-01T02:55:29;99616.59;;;-1.02;84.54
48926;BME280;39838;59.938;30.642;2023-04-01T02:57:58;99618.34;;;-1.01;84.59
48926;BME280;39838;59.938;30.642;2023-04-01T03:00:26;99620.03;;;-1.01;84.86
48926;BME280;39838;59.938;30.642;2023-04-01T03:02:53;99608.16;;;-1.01;84.85
48926;BME280;39838;59.938;30.642;2023-04-01T03:05:20;99614.19;;;-0.97;84.72
48926;BME280;39838;59.938;30.642;2023-04-01T03:07:47;99615.03;;;-0.98;84.52
48926;BME280;39838;59.938;30.642;2023-04-01T03:10:15;99620.09;;;-1.00;84.82
48926;BME280;39838;59.938;30.642;2023-04-01T03:12:42;99612.44;;;-1.00;84.81
48926;BME280;39838;59.938;30.642;2023-04-01T03:15:12;99617.50;;;-1.01;84.77
48926;BME280;39838;59.938;30.642;2023-04-01T03:17:41;99617.56;;;-0.98;85.00
48926;BME280;39838;59.938;30.642;2023-04-01T03:20:09;99621.03;;;-0.96;84.93
48926;BME280;39838;59.938;30.642;2023-04-01T03:22:37;99617.63;;;-0.97;84.38
48926;BME280;39838;59.938;30.642;2023-04-01T03:25:05;99620.13;;;-0.98;84.70
48926;BME280;39838;59.938;30.642;2023-04-01T03:27:33;99607.22;;;-1.03;84.36
48926;BME280;39838;59.938;30.642;2023-04-01T03:30:01;99621.59;;;-1.05;84.56
48926;BME280;39838;59.938;30.642;2023-04-01T03:32:31;99617.50;;;-1.01;84.71
48926;BME280;39838;59.938;30.642;2023-04-01T03:34:58;99621.75;;;-1.00;84.44
48926;BME280;39838;59.938;30.642;2023-04-01T03:37:25;99624.31;;;-1.00;84.81
48926;BME280;39838;59.938;30.642;2023-04-01T03:39:53;99624.34;;;-0.99;84.61
48926;BME280;39838;59.938;30.642;2023-04-01T03:42:20;99634.50;;;-1.00;84.81
48926;BME280;39838;59.938;30.642;2023-04-01T03:44:47;99631.97;;;-1.00;84.99
48926;BME280;39838;59.938;30.642;2023-04-01T03:47:14;99633.66;;;-1.01;84.74
48926;BME280;39838;59.938;30.642;2023-04-01T03:49:42;99637.09;;;-0.99;84.88
48926;BME280;39838;59.938;30.642;2023-04-01T03:52:10;99638.06;;;-0.95;84.73
48926;BME280;39838;59.938;30.642;2023-04-01T03:54:37;99638.16;;;-0.92;84.70
48926;BME280;39838;59.938;30.642;2023-04-01T03:57:05;99633.16;;;-0.89;84.68
48926;BME280;39838;59.938;30.642;2023-04-01T03:59:33;99652.69;;;-0.90;84.52
48926;BME280;39838;59.938;30.642;2023-04-01T04:02:00;99638.41;;;-0.85;84.73
48926;BME280;39838;59.938;30.642;2023-04-01T04:04:27;99638.41;;;-0.85;84.84
48926;BME280;39838;59.938;30.642;2023-04-01T04:06:57;99644.22;;;-0.89;84.75
48926;BME280;39838;59.938;30.642;2023-04-01T04:09:24;99638.38;;;-0.86;84.48
48926;BME280;39838;59.938;30.642;2023-04-01T04:11:51;99650.47;;;-0.80;84.96
48926;BME280;39838;59.938;30.642;2023-04-01T04:14:18;99641.19;;;-0.77;84.73
48926;BME280;39838;59.938;30.642;2023-04-01T04:16:45;99644.63;;;-0.76;84.81
48926;BME280;39838;59.938;30.642;2023-04-01T04:19:12;99643.00;;;-0.74;84.54
48926;BME280;39838;59.938;30.642;2023-04-01T04:21:40;99640.56;;;-0.70;84.76
48926;BME280;39838;59.938;30.642;2023-04-01T04:24:09;99644.91;;;-0.67;84.55
48926;BME280;39838;59.938;30.642;2023-04-01T04:26:36;99647.56;;;-0.64;84.28
48926;BME280;39838;59.938;30.642;2023-04-01T04:29:03;99642.50;;;-0.63;84.64
48926;BME280;39838;59.938;30.642;2023-04-01T04:31:30;99645.09;;;-0.61;84.26
48926;BME280;39838;59.938;30.642;2023-04-01T04:33:58;99644.34;;;-0.59;84.60
48926;BME280;39838;59.938;30.642;2023-04-01T04:36:26;99653.91;;;-0.51;84.23
48926;BME280;39838;59.938;30.642;2023-04-01T04:38:53;99645.56;;;-0.46;84.28
48926;BME280;39838;59.938;30.642;2023-04-01T04:41:21;99653.28;;;-0.44;83.99
48926;BME280;39838;59.938;30.642;2023-04-01T04:43:50;99644.78;;;-0.43;84.30
48926;BME280;39838;59.938;30.642;2023-04-01T04:46:18;99631.81;;;-0.51;83.98
48926;BME280;39838;59.938;30.642;2023-04-01T04:48:45;99653.50;;;-0.37;84.04
48926;BME280;39838;59.938;30.642;2023-04-01T04:51:14;99652.03;;;-0.29;83.77
48926;BME280;39838;59.938;30.642;2023-04-01T04:53:42;99656.47;;;-0.23;83.83
48926;BME280;39838;59.938;30.642;2023-04-01T04:56:09;99650.63;;;-0.19;83.96
48926;BME280;39838;59.938;30.642;2023-04-01T04:58:38;99650.72;;;-0.16;83.58
48926;BME280;39838;59.938;30.642;2023-04-01T05:01:07;99656.91;;;-0.08;83.44
48926;BME280;39838;59.938;30.642;2023-04-01T05:03:34;99652.72;;;-0.06;83.24
48926;BME280;39838;59.938;30.642;2023-04-01T05:06:01;99655.34;;;-0.03;82.98
48926;BME280;39838;59.938;30.642;2023-04-01T05:08:28;99667.25;;;-0.03;82.92
48926;BME280;39838;59.938;30.642;2023-04-01T05:10:55;99662.28;;;0.02;83.15
48926;BME280;39838;59.938;30.642;2023-04-01T05:13:23;99661.66;;;0.09;83.22
48926;BME280;39838;59.938;30.642;2023-04-01T05:15:51;99669.31;;;0.09;82.68
48926;BME280;39838;59.938;30.642;2023-04-01T05:18:18;99654.06;;;0.12;82.56
48926;BME280;39838;59.938;30.642;2023-04-01T05:20:47;99627.44;;;0.04;82.68
48926;BME280;39838;59.938;30.642;2023-04-01T05:23:14;99655.19;;;0.21;82.44
48926;BME280;39838;59.938;30.642;2023-04-01T05:25:42;99661.13;;;0.20;82.36
48926;BME280;39838;59.938;30.642;2023-04-01T05:28:10;99658.63;;;0.22;81.95
48926;BME280;39838;59.938;30.642;2023-04-01T05:30:40;99662.97;;;0.26;81.93
48926;BME280;39838;59.938;30.642;2023-04-01T05:33:09;99668.94;;;0.26;82.05
48926;BME280;39838;59.938;30.642;2023-04-01T05:35:37;99665.47;;;0.24;82.17
48926;BME280;39838;59.938;30.642;2023-04-01T05:38:04;99660.34;;;0.23;81.72
48926;BME280;39838;59.938;30.642;2023-04-01T05:40:31;99663.72;;;0.22;82.24
48926;BME280;39838;59.938;30.642;2023-04-01T05:42:59;99659.44;;;0.21;82.04
48926;BME280;39838;59.938;30.642;2023-04-01T05:45:26;99664.59;;;0.22;81.77
48926;BME280;39838;59.938;30.642;2023-04-01T05:47:54;99670.56;;;0.23;82.01
48926;BME280;39838;59.938;30.642;2023-04-01T05:50:22;99673.34;;;0.32;82.24
48926;BME280;39838;59.938;30.642;2023-04-01T05:52:49;99671.66;;;0.33;81.97
48926;BME280;39838;59.938;30.642;2023-04-01T05:55:17;99670.94;;;0.37;81.94
48926;BME280;39838;59.938;30.642;2023-04-01T05:57:44;99674.50;;;0.42;81.67
48926;BME280;39838;59.938;30.642;2023-04-01T06:00:13;99676.44;;;0.50;81.80
48926;BME280;39838;59.938;30.642;2023-04-01T06:02:40;99680.06;;;0.59;81.61
48926;BME280;39838;59.938;30.642;2023-04-01T06:05:18;99675.94;;;0.64;81.30
48926;BME280;39838;59.938;30.642;2023-04-01T06:07:47;99681.22;;;0.70;81.16
48926;BME280;39838;59.938;30.642;2023-04-01T06:10:17;99663.31;;;0.70;80.78
48926;BME280;39838;59.938;30.642;2023-04-01T06:12:58;99673.81;;;0.80;80.74
48926;BME280;39838;59.938;30.642;2023-04-01T06:15:36;99674.09;;;0.91;80.47
48926;BME280;39838;59.938;30.642;2023-04-01T06:18:31;99684.44;;;0.96;79.64
48926;BME280;39838;59.938;30.642;2023-04-01T06:21:14;99687.91;;;0.98;79.68
48926;BME280;39838;59.938;30.642;2023-04-01T06:23:58;99680.25;;;0.99;79.33
48926;BME280;39838;59.938;30.642;2023-04-01T06:26:33;99669.97;;;0.96;79.31
48926;BME280;39838;59.938;30.642;2023-04-01T06:29:31;99690.66;;;1.05;78.81
48926;BME280;39838;59.938;30.642;2023-04-01T06:35:19;99663.22;;;1.00;79.13
48926;BME280;39838;59.938;30.642;2023-04-01T06:38:14;99686.88;;;1.26;79.21
48926;BME280;39838;59.938;30.642;2023-04-01T06:43:50;99682.34;;;1.50;78.27
48926;BME280;39838;59.938;30.642;2023-04-01T06:46:29;99655.38;;;1.28;77.52
48926;BME280;39838;59.938;30.642;2023-04-01T06:49:11;99696.94;;;1.54;77.50
48926;BME280;39838;59.938;30.642;2023-04-01T06:51:49;99676.63;;;1.62;77.56
48926;BME280;39838;59.938;30.642;2023-04-01T06:54:22;99690.72;;;1.81;77.51
48926;BME280;39838;59.938;30.642;2023-04-01T06:56:58;99687.47;;;1.88;77.10
48926;BME280;39838;59.938;30.642;2023-04-01T06:59:28;99687.69;;;1.97;77.13
48926;BME280;39838;59.938;30.642;2023-04-01T07:01:59;99698.88;;;2.02;76.76
48926;BME280;39838;59.938;30.642;2023-04-01T07:04:30;99698.94;;;2.05;76.77
48926;BME280;39838;59.938;30.642;2023-04-01T07:07:01;99699.09;;;2.13;76.62
48926;BME280;39838;59.938;30.642;2023-04-01T07:09:33;99686.28;;;2.13;76.11
48926;BME280;39838;59.938;30.642;2023-04-01T07:12:09;99698.38;;;2.18;75.38
48926;BME280;39838;59.938;30.642;2023-04-01T07:14:41;99710.25;;;2.15;75.42
48926;BME280;39838;59.938;30.642;2023-04-01T07:17:14;99715.19;;;2.06;75.10
48926;BME280;39838;59.938;30.642;2023-04-01T07:19:45;99678.72;;;1.78;75.84
48926;BME280;39838;59.938;30.642;2023-04-01T07:22:21;99704.75;;;1.97;76.00
48926;BME280;39838;59.938;30.642;2023-04-01T07:24:54;99717.63;;;2.01;75.87
48926;BME280;39838;59.938;30.642;2023-04-01T07:27:25;99713.31;;;1.97;75.67
48926;BME280;39838;59.938;30.642;2023-04-01T07:29:52;99720.84;;;1.91;75.43
48926;BME280;39838;59.938;30.642;2023-04-01T07:32:31;99712.31;;;1.92;75.81
48926;BME280;39838;59.938;30.642;2023-04-01T07:35:11;99711.50;;;1.93;76.03
48926;BME280;39838;59.938;30.642;2023-04-01T07:37:47;99718.44;;;1.97;75.02
48926;BME280;39838;59.938;30.642;2023-04-01T07:40:26;99727.88;;;2.00;75.40
48926;BME280;39838;59.938;30.642;2023-04-01T07:43:10;99720.31;;;2.06;75.23
48926;BME280;39838;59.938;30.642;2023-04-01T07:45:45;99726.28;;;2.05;75.20
48926;BME280;39838;59.938;30.642;2023-04-01T07:48:21;99703.69;;;1.88;74.59
48926;BME280;39838;59.938;30.642;2023-04-01T07:50:58;99733.03;;;2.03;74.99
48926;BME280;39838;59.938;30.642;2023-04-01T07:53:33;99706.94;;;1.80;74.57
48926;BME280;39838;59.938;30.642;2023-04-01T07:56:06;99720.00;;;1.92;75.42
48926;BME280;39838;59.938;30.642;2023-04-01T07:58:41;99708.78;;;1.87;75.16
48926;BME280;39838;59.938;30.642;2023-04-01T08:01:16;99728.75;;;2.02;74.69
48926;BME280;39838;59.938;30.642;2023-04-01T08:03:57;99711.50;;;1.93;74.75
48926;BME280;39838;59.938;30.642;2023-04-01T08:06:31;99746.81;;;2.08;75.34
48926;BME280;39838;59.938;30.642;2023-04-01T08:09:05;99743.53;;;2.13;74.44
48926;BME280;39838;59.938;30.642;2023-04-01T08:11:48;99741.72;;;2.09;74.00
48926;BME280;39838;59.938;30.642;2023-04-01T08:14:24;99748.47;;;2.04;74.37
48926;BME280;39838;59.938;30.642;2023-04-01T08:17:02;99744.25;;;2.08;74.55
48926;BME280;39838;59.938;30.642;2023-04-01T08:19:39;99741.81;;;2.12;74.04
48926;BME280;39838;59.938;30.642;2023-04-01T08:22:19;99744.25;;;2.06;73.87
48926;BME280;39838;59.938;30.642;2023-04-01T08:24:48;99745.28;;;2.16;73.59
48926;BME280;39838;59.938;30.642;2023-04-01T08:27:20;99742.09;;;2.25;73.99
48926;BME280;39838;59.938;30.642;2023-04-01T08:29:52;99747.34;;;2.31;73.51
48926;BME280;39838;59.938;30.642;2023-04-01T08:32:26;99756.91;;;2.39;73.39
48926;BME280;39838;59.938;30.642;2023-04-01T08:35:07;99748.94;;;2.26;73.32
48926;BME280;39838;59.938;30.642;2023-04-01T08:37:38;99761.06;;;2.34;73.27
48926;BME280;39838;59.938;30.642;2023-04-01T08:40:25;99748.03;;;2.24;73.22
48926;BME280;39838;59.938;30.642;2023-04-01T08:43:06;99765.94;;;2.22;73.05
48926;BME280;39838;59.938;30.642;2023-04-01T08:45:59;99760.44;;;2.05;73.11
48926;BME280;39838;59.938;30.642;2023-04-01T08:48:44;99762.13;;;2.03;73.56
48926;BME280;39838;59.938;30.642;2023-04-01T08:51:33;99768.16;;;2.07;73.66
48926;BME280;39838;59.938;30.642;2023-04-01T08:54:26;99764.59;;;2.00;74.08
48926;BME280;39838;59.938;30.642;2023-04-01T08:57:04;99777.97;;;2.25;74.03
48926;BME280;39838;59.938;30.642;2023-04-01T08:59:53;99779.59;;;2.21;73.26
48926;BME280;39838;59.938;30.642;2023-04-01T09:02:41;99774.47;;;2.23;73.71
48926;BME280;39838;59.938;30.642;2023-04-01T09:05:47;99779.53;;;2.18;73.75
48926;BME280;39838;59.938;30.642;2023-04-01T09:08:34;99787.38;;;2.26;74.23
48926;BME280;39838;59.938;30.642;2023-04-01T09:11:08;99785.03;;;2.36;73.88
48926;BME280;39838;59.938;30.642;2023-04-01T09:13:56;99798.03;;;2.44;73.47
48926;BME280;39838;59.938;30.642;2023-04-01T09:16:49;99790.34;;;2.44;72.75
48926;BME280;39838;59.938;30.642;2023-04-01T09:19:31;99788.59;;;2.43;72.50
48926;BME280;39838;59.938;30.642;2023-04-01T09:22:33;99793.66;;;2.40;72.54
48926;BME280;39838;59.938;30.642;2023-04-01T09:25:24;99793.59;;;2.37;72.53
48926;BME280;39838;59.938;30.642;2023-04-01T09:27:56;99790.97;;;2.34;72.04
48926;BME280;39838;59.938;30.642;2023-04-01T09:30:34;99802.25;;;2.42;72.33
48926;BME280;39838;59.938;30.642;2023-04-01T09:36:21;99799.00;;;2.51;71.97
48926;BME280;39838;59.938;30.642;2023-04-01T09:38:57;99805.06;;;2.53;72.17
48926;BME280;39838;59.938;30.642;2023-04-01T09:41:30;99773.06;;;2.35;72.50
48926;BME280;39838;59.938;30.642;2023-04-01T09:44:02;99800.72;;;2.50;71.88
48926;BME280;39838;59.938;30.642;2023-04-01T09:46:42;99778.97;;;2.31;71.94
48926;BME280;39838;59.938;30.642;2023-04-01T09:49:38;99796.84;;;2.30;72.11
48926;BME280;39838;59.938;30.642;2023-04-01T09:52:26;99788.34;;;2.31;72.32
48926;BME280;39838;59.938;30.642;2023-04-01T09:55:19;99796.22;;;2.38;72.50
48926;BME280;39838;59.938;30.642;2023-04-01T09:58:16;99798.91;;;2.44;72.30
48926;BME280;39838;59.938;30.642;2023-04-01T10:07:38;99821.88;;;2.81;70.95
48926;BME280;39838;59.938;30.642;2023-04-01T10:10:36;99801.41;;;2.84;70.50
48926;BME280;39838;59.938;30.642;2023-04-01T10:13:37;99811.88;;;2.94;70.17
48926;BME280;39838;59.938;30.642;2023-04-01T10:25:40;99804.69;;;2.77;69.06
48926;BME280;39838;59.938;30.642;2023-04-01T10:28:38;99834.00;;;2.88;69.64
48926;BME280;39838;59.938;30.642;2023-04-01T10:31:23;99830.34;;;2.77;70.13
48926;BME280;39838;59.938;30.642;2023-04-01T10:34:29;99803.78;;;2.73;70.71
48926;BME280;39838;59.938;30.642;2023-04-01T10:37:04;99832.72;;;3.10;70.85
48926;BME280;39838;59.938;30.642;2023-04-01T10:40:08;99832.38;;;3.37;70.19
48926;BME280;39838;59.938;30.642;2023-04-01T10:43:10;99830.75;;;3.42;69.25
48926;BME280;39838;59.938;30.642;2023-04-01T10:52:12;99833.53;;;3.07;68.98
48926;BME280;39838;59.938;30.642;2023-04-01T10:54:52;99826.81;;;3.14;69.42
48926;BME280;39838;59.938;30.642;2023-04-01T10:57:47;99843.94;;;3.15;68.66
48926;BME280;39838;59.938;30.642;2023-04-01T11:03:46;99846.94;;;2.92;68.51
48926;BME280;39838;59.938;30.642;2023-04-01T11:06:57;99843.41;;;2.87;69.01
48926;BME280;39838;59.938;30.642;2023-04-01T11:10:05;99847.44;;;2.78;68.82
48926;BME280;39838;59.938;30.642;2023-04-01T11:13:10;99837.75;;;2.63;69.33
48926;BME280;39838;59.938;30.642;2023-04-01T11:25:14;99862.38;;;2.56;68.83
48926;BME280;39838;59.938;30.642;2023-04-01T11:28:11;99878.38;;;2.44;68.90
48926;BME280;39838;59.938;30.642;2023-04-01T11:31:02;99855.13;;;2.37;69.52
48926;BME280;39838;59.938;30.642;2023-04-01T11:33:36;99854.19;;;2.33;69.69
48926;BME280;39838;59.938;30.642;2023-04-01T11:36:18;99865.97;;;2.25;69.80
48926;BME280;39838;59.938;30.642;2023-04-01T11:39:00;99882.06;;;2.19;69.73
48926;BME280;39838;59.938;30.642;2023-04-01T11:41:35;99878.38;;;2.08;69.69
48926;BME280;39838;59.938;30.642;2023-04-01T11:44:16;99876.59;;;2.04;69.63
48926;BME280;39838;59.938;30.642;2023-04-01T11:46:59;99868.94;;;2.06;69.87
48926;BME280;39838;59.938;30.642;2023-04-01T11:49:50;99879.09;;;2.03;69.90
48926;BME280;39838;59.938;30.642;2023-04-01T11:52:46;99887.47;;;1.96;69.61
48926;BME280;39838;59.938;30.642;2023-04-01T11:55:25;99879.63;;;1.89;69.91
48926;BME280;39838;59.938;30.642;2023-04-01T11:58:11;99882.97;;;1.87;70.48
48926;BME280;39838;59.938;30.642;2023-04-01T12:00:55;99888.25;;;1.93;70.27
48926;BME280;39838;59.938;30.642;2023-04-01T12:03:47;99890.03;;;1.96;69.75
48926;BME280;39838;59.938;30.642;2023-04-01T12:06:23;99890.66;;;1.87;69.17
48926;BME280;39838;59.938;30.642;2023-04-01T12:08:57;99898.66;;;1.66;69.66
48926;BME280;39838;59.938;30.642;2023-04-01T12:11:34;99889.31;;;1.68;69.91
48926;BME280;39838;59.938;30.642;2023-04-01T12:14:13;99888.44;;;1.66;69.44
48926;BME280;39838;59.938;30.642;2023-04-01T12:16:52;99895.81;;;1.55;69.48
48926;BME280;39838;59.938;30.642;2023-04-01T12:19:30;99892.31;;;1.52;69.37
48926;BME280;39838;59.938;30.642;2023-04-01T12:22:03;99901.53;;;1.45;69.81
48926;BME280;39838;59.938;30.642;2023-04-01T12:24:49;99907.53;;;1.46;69.62
48926;BME280;39838;59.938;30.642;2023-04-01T12:27:38;99905.81;;;1.46;69.66
48926;BME280;39838;59.938;30.642;2023-04-01T12:30:18;99896.28;;;1.41;69.26
48926;BME280;39838;59.938;30.642;2023-04-01T12:32:59;99907.38;;;1.41;68.89
48926;BME280;39838;59.938;30.642;2023-04-01T12:35:34;99908.25;;;1.42;69.03
48926;BME280;39838;59.938;30.642;2023-04-01T12:38:15;99921.13;;;1.43;68.83
48926;BME280;39838;59.938;30.642;2023-04-01T12:41:08;99916.19;;;1.51;68.92
48926;BME280;39838;59.938;30.642;2023-04-01T12:44:00;99923.19;;;1.56;68.69
48926;BME280;39838;59.938;30.642;2023-04-01T12:46:41;99916.19;;;1.51;68.47
48926;BME280;39838;59.938;30.642;2023-04-01T12:49:52;99927.44;;;1.56;68.29
48926;BME280;39838;59.938;30.642;2023-04-01T12:52:30;99920.69;;;1.59;67.94
48926;BME280;39838;59.938;30.642;2023-04-01T12:55:39;99922.00;;;1.45;68.03
48926;BME280;39838;59.938;30.642;2023-04-01T13:01:23;99926.28;;;1.45;68.58
48926;BME280;39838;59.938;30.642;2023-04-01T13:04:11;99918.72;;;1.49;68.59
48926;BME280;39838;59.938;30.642;2023-04-01T13:06:53;99888.50;;;1.36;68.56
48926;BME280;39838;59.938;30.642;2023-04-01T13:09:35;99947.34;;;1.68;67.75
48926;BME280;39838;59.938;30.642;2023-04-01T13:12:19;99945.66;;;1.68;67.80
48926;BME280;39838;59.938;30.642;2023-04-01T13:15:23;99901.41;;;1.41;67.54
48926;BME280;39838;59.938;30.642;2023-04-01T13:17:58;99944.19;;;1.76;67.57
48926;BME280;39838;59.938;30.642;2023-04-01T13:20:43;99955.53;;;1.86;68.17
48926;BME280;39838;59.938;30.642;2023-04-01T13:23:24;99940.22;;;1.89;67.63
48926;BME280;39838;59.938;30.642;2023-04-01T13:26:00;99953.38;;;2.01;67.97
48926;BME280;39838;59.938;30.642;2023-04-01T13:28:31;99948.63;;;2.16;66.81
48926;BME280;39838;59.938;30.642;2023-04-01T13:31:05;99945.59;;;2.31;66.38
48926;BME280;39838;59.938;30.642;2023-04-01T13:33:39;99945.84;;;2.42;65.85
48926;BME280;39838;59.938;30.642;2023-04-01T13:36:17;99955.50;;;2.52;65.15
48926;BME280;39838;59.938;30.642;2023-04-01T13:39:02;99965.81;;;2.55;64.59
48926;BME280;39838;59.938;30.642;2023-04-01T13:41:45;99928.72;;;2.41;64.32
48926;BME280;39838;59.938;30.642;2023-04-01T13:44:18;99964.50;;;2.72;63.96
48926;BME280;39838;59.938;30.642;2023-04-01T13:47:09;99958.03;;;2.90;64.02
48926;BME280;39838;59.938;30.642;2023-04-01T13:49:53;99966.09;;;3.05;63.38
48926;BME280;39838;59.938;30.642;2023-04-01T13:52:30;99971.41;;;3.13;64.72
48926;BME280;39838;59.938;30.642;2023-04-01T13:55:22;99974.28;;;3.28;62.18
48926;BME280;39838;59.938;30.642;2023-04-01T13:58:14;99989.22;;;3.46;62.27
48926;BME280;39838;59.938;30.642;2023-04-01T14:00:54;99986.16;;;3.65;61.67
48926;BME280;39838;59.938;30.642;2023-04-01T14:06:40;99988.91;;;3.73;60.74
48926;BME280;39838;59.938;30.642;2023-04-01T14:09:42;99998.22;;;3.68;60.56
48926;BME280;39838;59.938;30.642;2023-04-01T14:12:26;99995.38;;;3.54;59.35
48926;BME280;39838;59.938;30.642;2023-04-01T14:15:07;99996.06;;;3.47;59.41
48926;BME280;39838;59.938;30.642;2023-04-01T14:17:53;99993.34;;;3.39;60.31
48926;BME280;39838;59.938;30.642;2023-04-01T14:20:36;99987.94;;;3.25;59.42
48926;BME280;39838;59.938;30.642;2023-04-01T14:26:35;100000.19;;;2.99;59.92
48926;BME280;39838;59.938;30.642;2023-04-01T14:29:18;100001.06;;;3.00;59.58
48926;BME280;39838;59.938;30.642;2023-04-01T14:32:04;100005.22;;;2.95;59.97
48926;BME280;39838;59.938;30.642;2023-04-01T14:34:54;100002.84;;;3.04;59.46
48926;BME280;39838;59.938;30.642;2023-04-01T14:37:38;99989.00;;;2.97;58.86
48926;BME280;39838;59.938;30.642;2023-04-01T14:40:20;100003.75;;;3.06;58.66